sensor_id;sensor_type;location;lat;lon;timestamp;P1;durP1;ratioP1;P2;durP2;ratioP2
73437;SDS011;66471;56.532;21.020;2023-06-24T00:00:40;25.38;;;13.93;;
73437;SDS011;66471;56.532;21.020;2023-06-24T00:03:07;21.35;;;12.90;;
73437;SDS011;66471;56.532;21.020;2023-06-24T00:05:34;29.70;;;14.73;;
73437;SDS011;66471;56.532;21.020;2023-06-24T00:08:01;26.77;;;14.02;;
73437;SDS011;66471;56.532;21.020;2023-06-24T00:10:29;24.53;;;13.73;;
73437;SDS011;66471;56.532;21.020;2023-06-24T00:12:57;24.92;;;14.27;;
73437;SDS011;66471;56.532;21.020;2023-06-24T00:15:28;20.30;;;13.13;;
73437;SDS011;66471;56.532;21.020;2023-06-24T00:17:55;23.52;;;14.43;;
73437;SDS011;66471;56.532;21.020;2023-06-24T00:20:32;24.00;;;14.65;;
73437;SDS011;66471;56.532;21.020;2023-06-24T00:23:00;23.53;;;13.73;;
73437;SDS011;66471;56.532;21.020;2023-06-24T00:25:27;22.48;;;14.43;;
73437;SDS011;66471;56.532;21.020;2023-06-24T00:27:54;26.75;;;16.00;;
73437;SDS011;66471;56.532;21.020;2023-06-24T00:30:22;27.92;;;16.17;;
73437;SDS011;66471;56.532;21.020;2023-06-24T00:32:49;30.75;;;17.15;;
73437;SDS011;66471;56.532;21.020;2023-06-24T00:35:17;25.17;;;14.97;;
73437;SDS011;66471;56.532;21.020;2023-06-24T00:37:44;27.10;;;15.60;;
73437;SDS011;66471;56.532;21.020;2023-06-24T00:40:12;28.08;;;15.45;;
73437;SDS011;66471;56.532;21.020;2023-06-24T00:42:44;25.05;;;14.73;;
73437;SDS011;66471;56.532;21.020;2023-06-24T00:45:12;28.13;;;16.08;;
73437;SDS011;66471;56.532;21.020;2023-06-24T00:47:40;24.60;;;15.20;;
73437;SDS011;66471;56.532;21.020;2023-06-24T00:50:07;26.65;;;16.63;;
73437;SDS011;66471;56.532;21.020;2023-06-24T00:52:36;24.60;;;14.88;;
73437;SDS011;66471;56.532;21.020;2023-06-24T00:55:05;32.90;;;16.83;;
73437;SDS011;66471;56.532;21.020;2023-06-24T00:57:33;30.20;;;18.52;;
73437;SDS011;66471;56.532;21.020;2023-06-24T01:00:00;33.23;;;18.33;;
73437;SDS011;66471;56.532;21.020;2023-06-24T01:02:31;33.55;;;18.27;;
73437;SDS011;66471;56.532;21.020;2023-06-24T01:04:59;62.08;;;32.83;;
73437;SDS011;66471;56.532;21.020;2023-06-24T01:07:26;63.85;;;36.55;;
73437;SDS011;66471;56.532;21.020;2023-06-24T01:09:56;56.97;;;32.60;;
73437;SDS011;66471;56.532;21.020;2023-06-24T01:12:23;53.07;;;30.83;;
73437;SDS011;66471;56.532;21.020;2023-06-24T01:14:50;68.75;;;43.50;;
73437;SDS011;66471;56.532;21.020;2023-06-24T01:17:19;69.45;;;45.45;;
73437;SDS011;66471;56.532;21.020;2023-06-24T01:31:34;46.67;;;29.17;;
73437;SDS011;66471;56.532;21.020;2023-06-24T01:34:21;46.10;;;28.73;;
73437;SDS011;66471;56.532;21.020;2023-06-24T01:37:08;43.88;;;26.27;;
73437;SDS011;66471;56.532;21.020;2023-06-24T01:39:38;43.73;;;25.90;;
73437;SDS011;66471;56.532;21.020;2023-06-24T01:42:17;44.97;;;29.17;;
73437;SDS011;66471;56.532;21.020;2023-06-24T01:44:47;43.47;;;26.75;;
73437;SDS011;66471;56.532;21.020;2023-06-24T01:47:22;43.20;;;26.92;;
73437;SDS011;66471;56.532;21.020;2023-06-24T01:49:52;43.97;;;28.17;;
73437;SDS011;66471;56.532;21.020;2023-06-24T01:52:22;45.87;;;27.43;;
73437;SDS011;66471;56.532;21.020;2023-06-24T01:54:52;43.30;;;27.38;;
73437;SDS011;66471;56.532;21.020;2023-06-24T01:57:22;45.88;;;28.60;;
73437;SDS011;66471;56.532;21.020;2023-06-24T01:59:52;47.50;;;28.73;;
73437;SDS011;66471;56.532;21.020;2023-06-24T02:02:21;45.22;;;29.15;;
73437;SDS011;66471;56.532;21.020;2023-06-24T02:04:51;41.07;;;28.80;;
73437;SDS011;66471;56.532;21.020;2023-06-24T02:07:20;41.85;;;26.75;;
73437;SDS011;66471;56.532;21.020;2023-06-24T02:09:50;42.30;;;28.00;;
73437;SDS011;66471;56.532;21.020;2023-06-24T02:12:18;39.83;;;25.52;;
73437;SDS011;66471;56.532;21.020;2023-06-24T02:14:47;43.35;;;28.85;;
73437;SDS011;66471;56.532;21.020;2023-06-24T02:17:15;39.83;;;24.67;;
73437;SDS011;66471;56.532;21.020;2023-06-24T02:19:43;39.05;;;23.98;;
73437;SDS011;66471;56.532;21.020;2023-06-24T02:22:12;40.17;;;26.45;;
73437;SDS011;66471;56.532;21.020;2023-06-24T02:24:39;41.15;;;25.38;;
73437;SDS011;66471;56.532;21.020;2023-06-24T02:27:07;38.17;;;25.33;;
73437;SDS011;66471;56.532;21.020;2023-06-24T02:29:37;37.53;;;23.40;;
73437;SDS011;66471;56.532;21.020;2023-06-24T02:32:09;37.00;;;24.85;;
73437;SDS011;66471;56.532;21.020;2023-06-24T02:34:36;42.55;;;27.52;;
73437;SDS011;66471;56.532;21.020;2023-06-24T02:37:03;37.55;;;23.48;;
73437;SDS011;66471;56.532;21.020;2023-06-24T02:39:31;38.20;;;23.98;;
73437;SDS011;66471;56.532;21.020;2023-06-24T02:41:58;35.93;;;23.63;;
73437;SDS011;66471;56.532;21.020;2023-06-24T02:44:25;40.15;;;23.90;;
73437;SDS011;66471;56.532;21.020;2023-06-24T02:46:53;36.85;;;23.83;;
73437;SDS011;66471;56.532;21.020;2023-06-24T02:49:21;38.40;;;25.08;;
73437;SDS011;66471;56.532;21.020;2023-06-24T02:51:48;46.92;;;27.67;;
73437;SDS011;66471;56.532;21.020;2023-06-24T02:54:15;54.27;;;31.80;;
73437;SDS011;66471;56.532;21.020;2023-06-24T02:56:43;53.42;;;31.83;;
73437;SDS011;66471;56.532;21.020;2023-06-24T02:59:11;56.63;;;31.63;;
73437;SDS011;66471;56.532;21.020;2023-06-24T03:01:38;53.58;;;30.25;;
73437;SDS011;66471;56.532;21.020;2023-06-24T03:04:11;52.53;;;30.45;;
73437;SDS011;66471;56.532;21.020;2023-06-24T03:06:39;51.50;;;28.63;;
73437;SDS011;66471;56.532;21.020;2023-06-24T03:09:07;45.95;;;28.20;;
73437;SDS011;66471;56.532;21.020;2023-06-24T03:11:44;47.80;;;28.30;;
73437;SDS011;66471;56.532;21.020;2023-06-24T03:14:11;41.70;;;26.27;;
73437;SDS011;66471;56.532;21.020;2023-06-24T03:16:38;43.00;;;25.52;;
73437;SDS011;66471;56.532;21.020;2023-06-24T03:19:06;43.57;;;26.40;;
73437;SDS011;66471;56.532;21.020;2023-06-24T03:21:33;40.58;;;26.08;;
73437;SDS011;66471;56.532;21.020;2023-06-24T03:24:00;43.05;;;27.67;;
73437;SDS011;66471;56.532;21.020;2023-06-24T03:26:34;41.60;;;26.08;;
73437;SDS011;66471;56.532;21.020;2023-06-24T03:29:02;36.88;;;22.30;;
73437;SDS011;66471;56.532;21.020;2023-06-24T03:31:29;35.07;;;21.30;;
73437;SDS011;66471;56.532;21.020;2023-06-24T03:33:57;35.97;;;19.77;;
73437;SDS011;66471;56.532;21.020;2023-06-24T03:36:24;36.50;;;22.25;;
73437;SDS011;66471;56.532;21.020;2023-06-24T03:38:51;34.95;;;21.45;;
73437;SDS011;66471;56.532;21.020;2023-06-24T03:41:18;35.85;;;22.73;;
73437;SDS011;66471;56.532;21.020;2023-06-24T03:43:46;34.27;;;20.53;;
73437;SDS011;66471;56.532;21.020;2023-06-24T03:46:13;39.17;;;22.20;;
73437;SDS011;66471;56.532;21.020;2023-06-24T03:48:40;40.65;;;25.60;;
73437;SDS011;66471;56.532;21.020;2023-06-24T03:51:07;38.83;;;25.63;;
73437;SDS011;66471;56.532;21.020;2023-06-24T03:53:34;39.88;;;26.05;;
73437;SDS011;66471;56.532;21.020;2023-06-24T03:56:02;39.97;;;26.67;;
73437;SDS011;66471;56.532;21.020;2023-06-24T03:58:29;39.67;;;27.10;;
73437;SDS011;66471;56.532;21.020;2023-06-24T04:00:58;43.28;;;28.67;;
73437;SDS011;66471;56.532;21.020;2023-06-24T04:03:26;38.85;;;26.15;;
73437;SDS011;66471;56.532;21.020;2023-06-24T04:05:54;38.35;;;26.45;;
73437;SDS011;66471;56.532;21.020;2023-06-24T04:08:22;35.43;;;23.53;;
73437;SDS011;66471;56.532;21.020;2023-06-24T04:10:51;35.30;;;23.63;;
73437;SDS011;66471;56.532;21.020;2023-06-24T04:13:18;34.53;;;23.42;;
73437;SDS011;66471;56.532;21.020;2023-06-24T04:15:45;33.03;;;21.55;;
73437;SDS011;66471;56.532;21.020;2023-06-24T04:18:13;40.58;;;27.80;;
73437;SDS011;66471;56.532;21.020;2023-06-24T04:20:40;37.40;;;25.50;;
73437;SDS011;66471;56.532;21.020;2023-06-24T04:23:08;40.10;;;27.90;;
73437;SDS011;66471;56.532;21.020;2023-06-24T04:25:37;41.10;;;27.33;;
73437;SDS011;66471;56.532;21.020;2023-06-24T04:28:04;32.20;;;22.13;;
73437;SDS011;66471;56.532;21.020;2023-06-24T04:30:31;30.40;;;19.90;;
73437;SDS011;66471;56.532;21.020;2023-06-24T04:33:01;28.17;;;18.60;;
73437;SDS011;66471;56.532;21.020;2023-06-24T04:35:28;26.70;;;17.35;;
73437;SDS011;66471;56.532;21.020;2023-06-24T04:37:57;26.50;;;17.25;;
73437;SDS011;66471;56.532;21.020;2023-06-24T04:40:24;26.27;;;16.75;;
73437;SDS011;66471;56.532;21.020;2023-06-24T04:42:51;24.60;;;15.95;;
73437;SDS011;66471;56.532;21.020;2023-06-24T04:45:18;20.97;;;14.30;;
73437;SDS011;66471;56.532;21.020;2023-06-24T04:47:45;19.30;;;13.80;;
73437;SDS011;66471;56.532;21.020;2023-06-24T04:50:15;21.20;;;14.70;;
73437;SDS011;66471;56.532;21.020;2023-06-24T04:52:42;18.88;;;12.27;;
73437;SDS011;66471;56.532;21.020;2023-06-24T04:55:11;20.20;;;13.13;;
73437;SDS011;66471;56.532;21.020;2023-06-24T04:57:38;19.50;;;12.90;;
73437;SDS011;66471;56.532;21.020;2023-06-24T05:00:05;20.98;;;12.10;;
73437;SDS011;66471;56.532;21.020;2023-06-24T05:02:33;16.25;;;10.45;;
73437;SDS011;66471;56.532;21.020;2023-06-24T05:05:00;15.10;;;10.30;;
73437;SDS011;66471;56.532;21.020;2023-06-24T05:07:27;15.38;;;9.82;;
73437;SDS011;66471;56.532;21.020;2023-06-24T05:09:54;15.33;;;9.27;;
73437;SDS011;66471;56.532;21.020;2023-06-24T05:12:22;18.48;;;11.57;;
73437;SDS011;66471;56.532;21.020;2023-06-24T05:14:49;13.70;;;8.70;;
73437;SDS011;66471;56.532;21.020;2023-06-24T05:17:19;14.18;;;8.95;;
73437;SDS011;66471;56.532;21.020;2023-06-24T05:19:47;13.40;;;9.05;;
73437;SDS011;66471;56.532;21.020;2023-06-24T05:22:14;14.77;;;9.47;;
73437;SDS011;66471;56.532;21.020;2023-06-24T05:24:41;13.07;;;8.80;;
73437;SDS011;66471;56.532;21.020;2023-06-24T05:27:08;14.60;;;8.80;;
73437;SDS011;66471;56.532;21.020;2023-06-24T05:29:35;15.57;;;9.13;;
73437;SDS011;66471;56.532;21.020;2023-06-24T05:32:03;13.98;;;8.85;;
73437;SDS011;66471;56.532;21.020;2023-06-24T05:34:30;13.27;;;8.90;;
73437;SDS011;66471;56.532;21.020;2023-06-24T05:36:58;14.32;;;9.07;;
73437;SDS011;66471;56.532;21.020;2023-06-24T05:39:25;14.65;;;9.95;;
73437;SDS011;66471;56.532;21.020;2023-06-24T05:41:52;14.38;;;10.05;;
73437;SDS011;66471;56.532;21.020;2023-06-24T05:44:20;14.57;;;9.10;;
73437;SDS011;66471;56.532;21.020;2023-06-24T05:46:47;15.37;;;10.03;;
73437;SDS011;66471;56.532;21.020;2023-06-24T05:49:14;15.45;;;10.10;;
73437;SDS011;66471;56.532;21.020;2023-06-24T05:51:41;13.85;;;9.95;;
73437;SDS011;66471;56.532;21.020;2023-06-24T05:54:08;12.27;;;9.70;;
73437;SDS011;66471;56.532;21.020;2023-06-24T05:56:35;13.50;;;9.05;;
73437;SDS011;66471;56.532;21.020;2023-06-24T05:59:05;13.90;;;9.80;;
73437;SDS011;66471;56.532;21.020;2023-06-24T06:01:32;13.70;;;9.15;;
73437;SDS011;66471;56.532;21.020;2023-06-24T06:04:00;13.02;;;10.23;;
73437;SDS011;66471;56.532;21.020;2023-06-24T06:06:27;12.35;;;8.88;;
73437;SDS011;66471;56.532;21.020;2023-06-24T06:08:54;12.93;;;9.30;;
73437;SDS011;66471;56.532;21.020;2023-06-24T06:11:22;12.90;;;8.90;;
73437;SDS011;66471;56.532;21.020;2023-06-24T06:13:49;13.80;;;8.98;;
73437;SDS011;66471;56.532;21.020;2023-06-24T06:16:17;13.52;;;9.50;;
73437;SDS011;66471;56.532;21.020;2023-06-24T06:18:44;15.10;;;9.63;;
73437;SDS011;66471;56.532;21.020;2023-06-24T06:21:11;13.90;;;8.70;;
73437;SDS011;66471;56.532;21.020;2023-06-24T06:23:39;12.53;;;8.60;;
73437;SDS011;66471;56.532;21.020;2023-06-24T06:26:06;11.85;;;8.45;;
73437;SDS011;66471;56.532;21.020;2023-06-24T06:28:33;11.30;;;8.38;;
73437;SDS011;66471;56.532;21.020;2023-06-24T06:31:00;11.77;;;8.25;;
73437;SDS011;66471;56.532;21.020;2023-06-24T06:33:27;10.52;;;7.30;;
73437;SDS011;66471;56.532;21.020;2023-06-24T06:35:54;10.90;;;7.27;;
73437;SDS011;66471;56.532;21.020;2023-06-24T06:38:21;11.23;;;6.85;;
73437;SDS011;66471;56.532;21.020;2023-06-24T06:40:49;9.43;;;6.50;;
73437;SDS011;66471;56.532;21.020;2023-06-24T06:43:16;9.68;;;6.85;;
73437;SDS011;66471;56.532;21.020;2023-06-24T06:45:43;9.88;;;7.00;;
73437;SDS011;66471;56.532;21.020;2023-06-24T06:48:10;8.90;;;5.77;;
73437;SDS011;66471;56.532;21.020;2023-06-24T06:50:37;11.88;;;6.28;;
73437;SDS011;66471;56.532;21.020;2023-06-24T06:53:04;9.40;;;6.35;;
73437;SDS011;66471;56.532;21.020;2023-06-24T06:55:31;10.00;;;6.30;;
73437;SDS011;66471;56.532;21.020;2023-06-24T06:57:59;10.30;;;6.68;;
73437;SDS011;66471;56.532;21.020;2023-06-24T07:00:26;8.53;;;6.17;;
73437;SDS011;66471;56.532;21.020;2023-06-24T07:02:53;8.43;;;6.22;;
73437;SDS011;66471;56.532;21.020;2023-06-24T07:05:20;11.15;;;6.75;;
73437;SDS011;66471;56.532;21.020;2023-06-24T07:07:48;8.88;;;6.25;;
73437;SDS011;66471;56.532;21.020;2023-06-24T07:10:16;8.98;;;6.30;;
73437;SDS011;66471;56.532;21.020;2023-06-24T07:12:44;8.63;;;5.90;;
73437;SDS011;66471;56.532;21.020;2023-06-24T07:15:15;8.43;;;6.47;;
73437;SDS011;66471;56.532;21.020;2023-06-24T07:17:45;10.27;;;7.43;;
73437;SDS011;66471;56.532;21.020;2023-06-24T07:20:13;9.55;;;6.13;;
